Time;durP1;ratioP1;P1;durP2;ratioP2;P2;SDS_P1;SDS_P2;PMS_P1;PMS_P2;Temp;Humidity;BMP_temperature;BMP_pressure;BME280_temperature;BME280_humidity;BME280_pressure;Samples;Min_cycle;Max_cycle;Signal;HPM_P1;HPM_P2
2022/09/23 00:00:40;;;;;;;;;16.33;15.00;;;;;17.03;46.50;101311.97;5099504;27;45425;-65
2022/09/23 00:03:05;;;;;;;;;18.67;17.00;;;;;16.90;46.66;101284.78;5099677;27;45331;-69
2022/09/23 00:05:31;;;;;;;;;15.67;15.00;;;;;17.03;46.67;101312.81;5098127;27;46271;-65
2022/09/23 00:07:58;;;;;;;;;17.67;16.67;;;;;16.99;47.16;101302.53;5099449;27;47330;-65
2022/09/23 00:10:25;;;;;;;;;17.67;16.00;;;;;17.07;46.94;101315.97;5099776;27;45617;-65
2022/09/23 00:12:51;;;;;;;;;16.67;14.33;;;;;16.81;46.91;101258.94;5099699;27;45215;-65
2022/09/23 00:15:17;;;;;;;;;13.67;12.67;;;;;16.99;46.75;101302.53;5099835;27;45525;-64
2022/09/23 00:17:43;;;;;;;;;15.67;15.67;;;;;17.06;46.95;101306.25;5099157;27;45602;-65
2022/09/23 00:20:10;;;;;;;;;17.00;15.67;;;;;17.02;46.94;101304.91;5099214;27;45615;-64
2022/09/23 00:22:35;;;;;;;;;16.67;16.33;;;;;16.97;46.88;101297.34;5099688;27;45490;-64
2022/09/23 00:25:03;;;;;;;;;19.00;15.67;;;;;16.90;47.07;101274.88;5099427;27;45355;-64
2022/09/23 00:27:28;;;;;;;;;20.00;16.33;;;;;16.87;47.37;101282.44;5099430;27;45395;-65
2022/09/23 00:29:54;;;;;;;;;14.00;12.33;;;;;17.00;47.37;101290.78;5099534;27;45398;-65
2022/09/23 00:32:19;;;;;;;;;14.67;12.67;;;;;16.70;47.29;101252.94;5099510;27;45474;-64
2022/09/23 00:34:45;;;;;;;;;17.33;15.00;;;;;16.98;47.16;101292.81;5099109;27;45417;-66
2022/09/23 00:37:11;;;;;;;;;18.67;17.33;;;;;16.98;47.25;101282.91;5080916;27;48216;-64
2022/09/23 00:39:36;;;;;;;;;19.67;16.33;;;;;16.98;47.27;101285.59;5099253;27;45220;-64
2022/09/23 00:42:01;;;;;;;;;13.67;13.67;;;;;16.86;47.26;101261.97;5080714;27;45224;-66
2022/09/23 00:45:06;;;;;;;;;18.33;15.00;;;;;16.92;47.50;101272.88;5064145;27;45312;-65
2022/09/23 00:47:46;;;;;;;;;15.67;14.67;;;;;16.88;47.40;101271.53;5094382;27;45868;-65
2022/09/23 00:50:14;;;;;;;;;13.67;13.67;;;;;16.90;47.45;101279.41;5098799;27;46211;-65
2022/09/23 00:52:40;;;;;;;;;13.67;11.33;;;;;16.89;47.77;101281.28;5099360;27;45576;-66
2022/09/23 00:55:10;;;;;;;;;15.67;14.00;;;;;16.81;47.62;101281.28;5099330;27;45382;-65
2022/09/23 00:57:37;;;;;;;;;15.00;14.67;;;;;16.85;48.04;101276.41;5099025;27;45332;-65
2022/09/23 01:00:06;;;;;;;;;14.00;14.00;;;;;16.82;47.86;101279.41;5098930;27;45444;-74
2022/09/23 01:02:32;;;;;;;;;15.33;12.67;;;;;16.60;48.34;101246.06;5090987;27;45231;-75
2022/09/23 01:04:58;;;;;;;;;17.67;15.33;;;;;16.60;48.31;101252.25;5107001;27;45642;-75
2022/09/23 01:07:23;;;;;;;;;18.00;15.67;;;;;16.12;48.26;101168.16;5098364;27;46160;-74
2022/09/23 01:09:49;;;;;;;;;13.67;13.33;;;;;16.48;48.26;101232.16;5096111;27;45491;-74
2022/09/23 01:12:31;;;;;;;;;12.33;12.33;;;;;16.70;48.47;101269.06;5080414;27;45252;-75
2022/09/23 01:15:28;;;;;;;;;16.33;15.00;;;;;16.25;48.31;101202.50;5099019;27;45412;-75
2022/09/23 01:18:03;;;;;;;;;19.67;17.00;;;;;16.68;48.33;101278.28;5098586;27;46485;-75
2022/09/23 01:20:34;;;;;;;;;18.00;16.67;;;;;16.67;48.71;101272.09;5098138;27;45399;-75
2022/09/23 01:23:36;;;;;;;;;15.33;14.00;;;;;16.64;48.76;101269.72;5080163;27;45476;-74
2022/09/23 01:26:43;;;;;;;;;14.67;14.67;;;;;16.62;49.05;101255.63;5093179;27;45437;-75
2022/09/23 01:29:27;;;;;;;;;15.00;12.67;;;;;16.58;48.79;101262.31;5079971;27;48690;-74
2022/09/23 01:32:14;;;;;;;;;15.33;15.00;;;;;16.48;48.93;101248.25;5089284;27;45729;-75
2022/09/23 01:34:56;;;;;;;;;17.67;15.67;;;;;16.33;49.02;101229.31;5098582;27;45488;-76
2022/09/23 01:37:32;;;;;;;;;16.00;15.00;;;;;16.51;48.93;101252.47;5099036;27;45384;-74
2022/09/23 01:40:00;;;;;;;;;15.33;13.00;;;;;16.46;49.45;101244.91;5098624;27;45890;-74
2022/09/23 01:42:38;;;;;;;;;16.00;15.00;;;;;16.43;49.31;101234.53;5080060;27;45613;-75
2022/09/23 01:45:09;;;;;;;;;11.67;10.67;;;;;16.44;49.28;101230.84;5097675;27;45471;-75
2022/09/23 01:47:43;;;;;;;;;15.67;13.67;;;;;16.20;49.42;101201.31;5080054;27;45617;-75
2022/09/23 01:51:00;;;;;;;;;16.67;11.67;;;;;16.41;49.48;101242.72;5098184;27;46122;-75
2022/09/23 01:53:20;;;;;;;;;18.00;15.00;;;;;16.30;49.67;101226.16;5089477;27;45200;-75
2022/09/23 01:55:51;;;;;;;;;16.33;15.00;;;;;15.75;49.42;101132.97;5080185;27;45539;-74
2022/09/23 01:58:28;;;;;;;;;18.67;17.33;;;;;16.39;49.56;101246.59;5075513;27;45474;-75
2022/09/23 02:01:01;;;;;;;;;13.33;11.67;;;;;16.38;49.68;101248.44;5102496;27;45782;-77
2022/09/23 02:03:33;;;;;;;;;14.33;12.00;;;;;16.26;49.47;101233.72;5127509;27;45464;-74
2022/09/23 02:06:05;;;;;;;;;19.00;17.33;;;;;16.29;49.68;101243.25;5118741;27;45564;-76
2022/09/23 02:08:37;;;;;;;;;13.00;13.00;;;;;16.34;49.40;101241.72;5111883;27;45332;-75
2022/09/23 02:11:09;;;;;;;;;10.33;10.33;;;;;16.35;49.33;101245.25;5134629;27;48230;-74
2022/09/23 02:13:38;;;;;;;;;11.33;10.67;;;;;16.36;49.47;101241.56;5118578;27;45293;-77
2022/09/23 02:16:12;;;;;;;;;17.67;13.00;;;;;16.24;49.41;101222.31;5119017;27;45563;-76
2022/09/23 02:18:47;;;;;;;;;4.00;4.00;;;;;16.36;49.25;101244.25;5119007;27;45504;-75
2022/09/23 02:21:15;;;;;;;;;11.33;11.33;;;;;16.37;49.24;101245.91;5118489;27;45442;-77
2022/09/23 02:23:49;;;;;;;;;14.00;14.00;;;;;16.26;49.20;101227.50;5117117;27;46374;-76
2022/09/23 02:26:48;;;;;;;;;13.33;11.00;;;;;16.20;49.28;101218.25;5134418;27;45463;-75
2022/09/23 02:29:25;;;;;;;;;14.33;13.00;;;;;15.88;49.45;101178.06;5102229;27;45302;-76
2022/09/23 02:31:53;;;;;;;;;14.33;11.67;;;;;16.29;49.41;101238.72;5116716;27;46948;-75
2022/09/23 02:34:43;;;;;;;;;12.67;11.00;;;;;16.30;49.20;101239.56;5118017;27;45184;-75
2022/09/23 02:37:22;;;;;;;;;12.00;11.67;;;;;16.30;49.39;101234.19;5112463;27;45282;-75
2022/09/23 02:39:56;;;;;;;;;14.33;13.00;;;;;16.29;49.54;101227.16;5134272;27;45252;-76
2022/09/23 02:42:30;;;;;;;;;19.00;15.00;;;;;16.19;49.36;101211.22;5117965;27;45472;-76
2022/09/23 02:44:57;;;;;;;;;11.00;11.00;;;;;16.29;49.20;101222.63;5151626;27;45333;-76
2022/09/23 02:47:29;;;;;;;;;10.00;10.00;;;;;16.36;48.51;101233.50;5134448;27;45292;-76
2022/09/23 02:49:55;;;;;;;;;10.67;10.33;;;;;16.30;48.61;101210.88;5134125;27;45602;-76
2022/09/23 02:52:22;;;;;;;;;16.00;11.00;;;;;16.36;48.41;101228.97;5116475;27;48480;-76
2022/09/23 02:54:48;;;;;;;;;9.67;9.33;;;;;16.11;48.73;101187.94;5116764;27;45498;-77
2022/09/23 02:57:13;;;;;;;;;14.33;12.33;;;;;16.24;48.84;101208.91;5117995;27;45156;-76
2022/09/23 02:59:39;;;;;;;;;13.33;11.00;;;;;16.30;48.70;101210.06;5118521;27;45441;-75
2022/09/23 03:02:30;;;;;;;;;16.67;10.67;;;;;16.24;48.80;101208.06;5117500;27;46647;-75
2022/09/23 03:04:58;;;;;;;;;14.67;12.00;;;;;15.86;48.56;101145.22;5116571;27;46164;-75
2022/09/23 03:08:01;;;;;;;;;11.33;10.67;;;;;16.28;48.96;101220.13;5116786;27;45350;-76
2022/09/23 03:10:38;;;;;;;;;10.00;10.00;;;;;16.33;48.66;101223.13;5117057;27;45455;-76
2022/09/23 03:13:25;;;;;;;;;15.33;13.33;;;;;16.33;48.63;101212.38;5117881;27;45821;-77
2022/09/23 03:16:01;;;;;;;;;10.33;10.33;;;;;15.56;48.68;101082.38;5119243;27;45440;-76
2022/09/23 03:18:39;;;;;;;;;12.33;11.33;;;;;16.39;48.37;101206.34;5118437;27;45548;-74
2022/09/23 03:21:15;;;;;;;;;11.00;10.33;;;;;16.37;48.43;101208.34;5118373;27;45285;-76
2022/09/23 03:23:42;;;;;;;;;11.00;9.00;;;;;16.39;48.43;101217.06;5109803;27;45545;-76
2022/09/23 03:26:19;;;;;;;;;10.33;10.33;;;;;16.03;48.36;101154.94;5117852;27;45706;-75
2022/09/23 03:28:46;;;;;;;;;10.33;9.00;;;;;16.30;48.82;101202.84;5133739;27;45294;-76
2022/09/23 03:31:13;;;;;;;;;11.00;9.33;;;;;16.35;48.99;101210.38;5118053;27;45418;-75
2022/09/23 03:33:44;;;;;;;;;13.67;11.00;;;;;16.39;48.24;101212.53;5116103;27;47874;-73
2022/09/23 03:39:07;;;;;;;;;7.67;6.00;;;;;16.32;48.81;101199.97;5117571;27;45246;-76
2022/09/23 03:41:40;;;;;;;;;10.33;8.67;;;;;16.38;48.84;101197.44;5117603;27;45428;-76
2022/09/23 03:44:07;;;;;;;;;8.67;8.00;;;;;16.37;49.04;101208.34;5115957;27;47927;-75
2022/09/23 03:46:34;;;;;;;;;15.33;9.00;;;;;16.34;49.49;101208.69;5118831;27;45564;-76
2022/09/23 03:49:10;;;;;;;;;16.33;14.33;;;;;16.25;49.13;101201.69;5119624;27;45404;-76
2022/09/23 03:51:35;;;;;;;;;12.67;10.33;;;;;16.21;49.48;101198.47;5116737;27;45559;-76
2022/09/23 03:54:00;;;;;;;;;13.67;11.67;;;;;16.34;49.63;101214.91;5115559;27;47622;-75
2022/09/23 03:56:26;;;;;;;;;12.33;11.33;;;;;16.26;49.96;101217.59;5115921;27;45228;-76
2022/09/23 03:58:52;;;;;;;;;16.00;16.00;;;;;16.32;49.92;101216.09;5117149;27;45469;-76
2022/09/23 04:01:17;;;;;;;;;12.33;11.33;;;;;16.10;49.81;101188.94;5116042;27;45471;-75
2022/09/23 04:03:42;;;;;;;;;16.00;15.33;;;;;16.12;49.91;101192.28;5116870;27;45543;-75
2022/09/23 04:06:08;;;;;;;;;12.33;11.33;;;;;16.08;50.11;101184.75;5132867;27;45453;-76
2022/09/23 04:08:33;;;;;;;;;11.67;11.00;;;;;16.24;50.00;101213.41;5118537;27;45256;-76
2022/09/23 04:11:00;;;;;;;;;14.33;12.67;;;;;16.20;50.10;101206.69;5120701;27;45250;-76
2022/09/23 04:13:26;;;;;;;;;12.00;12.00;;;;;16.10;49.78;101190.78;5136815;27;47687;-76
2022/09/23 04:15:51;;;;;;;;;11.67;11.67;;;;;16.10;49.83;101196.16;5121105;27;45390;-74
2022/09/23 04:18:17;;;;;;;;;9.33;9.33;;;;;16.26;50.03;101206.03;5121143;27;45314;-76
2022/09/23 04:20:42;;;;;;;;;13.67;13.67;;;;;16.30;50.24;101224.31;5119592;27;45390;-75
2022/09/23 04:23:08;;;;;;;;;11.00;9.67;;;;;15.85;48.96;101148.91;5119923;27;45314;-76
2022/09/23 04:25:33;;;;;;;;;13.33;10.67;;;;;16.13;48.92;101196.66;5120729;27;45357;-76
2022/09/23 04:27:58;;;;;;;;;14.67;14.00;;;;;16.20;49.42;101218.25;5135781;27;45782;-76
2022/09/23 04:30:24;;;;;;;;;8.67;8.00;;;;;16.19;49.25;101216.59;5119841;27;45424;-76
2022/09/23 04:32:51;;;;;;;;;11.33;11.33;;;;;15.66;49.24;101123.28;5119045;27;47103;-76
2022/09/23 04:35:16;;;;;;;;;11.00;9.67;;;;;16.06;49.35;101190.28;5118840;27;45320;-77
2022/09/23 04:37:42;;;;;;;;;11.67;10.67;;;;;15.76;49.38;101142.69;5120114;27;45334;-76
2022/09/23 04:40:08;;;;;;;;;14.67;11.00;;;;;16.21;49.42;101219.09;5119150;27;45228;-77
2022/09/23 04:42:33;;;;;;;;;12.00;11.67;;;;;16.16;49.72;101200.00;5119054;27;48329;-76
2022/09/23 04:44:59;;;;;;;;;11.00;11.00;;;;;16.09;50.07;101191.81;5118924;27;45979;-76
2022/09/23 04:47:25;;;;;;;;;14.00;11.00;;;;;15.98;50.64;101176.03;5136506;27;45449;-77
2022/09/23 04:49:50;;;;;;;;;16.00;14.00;;;;;16.07;50.40;101189.28;5120572;27;45538;-77
2022/09/23 04:52:15;;;;;;;;;14.00;13.00;;;;;16.11;50.46;101204.03;5120221;27;46066;-75
2022/09/23 04:54:41;;;;;;;;;16.33;16.33;;;;;15.92;50.98;101166.84;5120058;27;45419;-76
2022/09/23 04:57:09;;;;;;;;;17.67;15.33;;;;;16.12;50.87;101194.13;5118894;27;45311;-76
2022/09/23 04:59:36;;;;;;;;;14.00;14.00;;;;;16.04;51.91;101200.34;5113099;27;45549;-76
2022/09/23 05:02:01;;;;;;;;;17.00;15.33;;;;;15.93;52.11;101203.38;5119444;27;47497;-75
2022/09/23 05:04:26;;;;;;;;;17.33;15.33;;;;;15.92;52.33;101193.66;5119402;27;45477;-77
2022/09/23 05:06:52;;;;;;;;;19.00;15.67;;;;;15.94;52.21;101205.03;5120690;27;45316;-77
2022/09/23 05:09:17;;;;;;;;;18.67;18.33;;;;;15.70;52.06;101156.78;5119032;27;45498;-77
2022/09/23 05:11:44;;;;;;;;;18.00;16.00;;;;;15.87;51.93;101187.97;5120971;27;48485;-76
2022/09/23 05:14:09;;;;;;;;;14.67;14.33;;;;;15.76;52.31;101172.19;5123674;27;45447;-78
2022/09/23 05:16:35;;;;;;;;;15.67;15.33;;;;;15.78;52.63;101186.25;5136165;27;45431;-77
2022/09/23 05:19:01;;;;;;;;;18.00;17.00;;;;;15.77;52.60;101184.59;5118645;27;45479;-75
2022/09/23 05:21:27;;;;;;;;;14.67;14.67;;;;;15.75;52.77;101170.50;5117779;27;47586;-76
2022/09/23 05:23:55;;;;;;;;;15.33;14.00;;;;;15.84;52.69;101190.97;5119229;27;45505;-77
2022/09/23 05:26:24;;;;;;;;;14.67;14.67;;;;;15.58;53.11;101152.72;5116977;27;45472;-78
2022/09/23 05:28:49;;;;;;;;;16.33;16.00;;;;;15.67;52.87;101173.19;5119593;27;45165;-77
2022/09/23 05:31:17;;;;;;;;;20.33;18.67;;;;;15.61;53.42;101163.13;5118503;27;48977;-75
2022/09/23 05:33:45;;;;;;;;;20.00;18.00;;;;;15.67;53.74;101174.03;5143181;27;46138;-79
2022/09/23 05:36:11;;;;;;;;;17.67;17.67;;;;;15.70;53.62;101184.44;5120871;27;45519;-78
2022/09/23 05:38:37;;;;;;;;;20.33;17.67;;;;;15.59;53.63;101171.34;5118830;27;45543;-77
2022/09/23 05:41:05;;;;;;;;;19.00;16.67;;;;;15.58;53.59;101166.13;5117480;27;47299;-78
2022/09/23 05:43:31;;;;;;;;;18.33;17.33;;;;;15.73;53.86;101193.97;5137043;27;45460;-78
2022/09/23 05:46:04;;;;;;;;;16.67;16.33;;;;;15.66;53.80;101192.97;5139768;27;45460;-76
2022/09/23 05:48:31;;;;;;;;;19.67;18.00;;;;;15.48;54.22;101164.44;5118084;27;46256;-77
2022/09/23 05:50:58;;;;;;;;;19.67;16.67;;;;;15.56;53.72;101176.16;5117563;27;47993;-76
2022/09/23 05:53:24;;;;;;;;;17.33;16.33;;;;;15.71;53.83;101193.31;5117505;27;45329;-76
2022/09/23 05:55:50;;;;;;;;;16.67;16.00;;;;;15.60;53.65;101166.81;5118996;27;45764;-75
2022/09/23 05:58:15;;;;;;;;;13.67;12.00;;;;;15.80;53.62;101203.84;5118725;27;45490;-76
2022/09/23 06:00:42;;;;;;;;;18.33;18.00;;;;;15.73;53.41;101183.25;5115249;27;48708;-77
2022/09/23 06:03:12;;;;;;;;;20.00;19.00;;;;;15.77;53.31;101179.22;5079511;27;45636;-77
2022/09/23 06:05:38;;;;;;;;;16.33;16.33;;;;;15.72;53.40;101176.22;5080116;27;45579;-76
2022/09/23 06:08:03;;;;;;;;;18.67;16.33;;;;;15.86;53.09;101197.00;5080456;27;45364;-77
2022/09/23 06:10:34;;;;;;;;;19.00;18.00;;;;;15.79;53.35;101179.88;5079398;27;47670;-76
2022/09/23 06:13:00;;;;;;;;;15.00;15.00;;;;;15.96;53.51;101200.34;5072031;27;45765;-76
2022/09/23 06:15:46;;;;;;;;;16.00;15.33;;;;;15.93;52.46;101187.28;5095449;27;45319;-76
2022/09/23 06:18:12;;;;;;;;;17.00;16.33;;;;;15.98;51.45;101184.91;5092119;27;46219;-78
2022/09/23 06:20:38;;;;;;;;;26.67;26.67;;;;;16.05;51.48;101185.94;5082435;27;47028;-77
2022/09/23 06:23:06;;;;;;;;;15.67;15.67;;;;;15.97;51.35;101179.72;5100097;27;45497;-76
2022/09/23 06:25:32;;;;;;;;;19.33;18.00;;;;;16.08;51.46;101199.00;5080461;27;45451;-78
2022/09/23 06:27:58;;;;;;;;;16.67;15.67;;;;;16.15;51.24;101191.13;5079773;27;45367;-78
2022/09/23 06:30:25;;;;;;;;;28.00;22.67;;;;;16.07;51.45;101178.56;5076780;27;45468;-77
2022/09/23 06:32:56;;;;;;;;;27.00;21.33;;;;;16.27;51.27;101207.72;5076555;27;46154;-79
2022/09/23 06:35:25;;;;;;;;;14.67;14.67;;;;;16.23;51.05;101195.66;5072964;27;45449;-78
2022/09/23 06:37:52;;;;;;;;;15.67;15.67;;;;;15.63;51.02;101086.09;5100399;27;45569;-78
2022/09/23 06:40:19;;;;;;;;;23.33;22.00;;;;;16.24;51.11;101181.22;5072693;27;47710;-80
2022/09/23 06:42:45;;;;;;;;;16.00;16.00;;;;;16.38;51.07;101205.50;5080541;27;45388;-79
2022/09/23 06:45:13;;;;;;;;;19.67;17.67;;;;;16.38;51.45;101210.03;5081639;27;45303;-78
2022/09/23 06:47:39;;;;;;;;;23.67;19.00;;;;;16.21;51.25;101171.66;5084077;27;45576;-80
2022/09/23 06:50:05;;;;;;;;;17.67;17.33;;;;;16.38;50.75;101185.88;5095643;27;47899;-78
2022/09/23 06:52:31;;;;;;;;;20.33;18.67;;;;;16.50;50.66;101208.66;5079529;27;46499;-79
2022/09/23 06:54:56;;;;;;;;;20.00;18.00;;;;;16.31;50.65;101160.75;5080439;27;45422;-77
2022/09/23 06:57:23;;;;;;;;;17.00;17.00;;;;;16.61;50.50;101197.56;5097659;27;45287;-76
2022/09/23 06:59:49;;;;;;;;;17.33;17.33;;;;;16.10;50.52;101113.84;5079875;27;48479;-76
2022/09/23 07:02:14;;;;;;;;;25.00;23.33;;;;;16.81;50.41;101207.94;5123345;27;45272;-77
2022/09/23 07:04:40;;;;;;;;;29.67;25.67;;;;;16.80;49.59;101192.81;5135573;27;45591;-78
2022/09/23 07:07:05;;;;;;;;;23.67;21.33;;;;;16.94;49.17;101209.06;5132379;27;45469;-76
2022/09/23 07:09:31;;;;;;;;;22.67;22.67;;;;;16.90;48.91;101193.47;5114793;27;48394;-79
2022/09/23 07:11:56;;;;;;;;;23.67;20.33;;;;;16.85;49.05;101177.91;5118042;27;45284;-78
2022/09/23 07:14:22;;;;;;;;;16.67;14.67;;;;;16.95;48.96;101185.72;5132555;27;45313;-78
2022/09/23 07:16:49;;;;;;;;;23.00;21.67;;;;;16.95;48.97;101175.81;5118209;27;45542;-78
2022/09/23 07:19:15;;;;;;;;;26.00;20.00;;;;;17.07;48.56;101188.88;5119627;27;48271;-78
2022/09/23 07:21:40;;;;;;;;;20.67;19.67;;;;;17.12;48.42;101190.00;5135206;27;45346;-75
2022/09/23 07:24:06;;;;;;;;;25.00;23.00;;;;;17.10;48.14;101167.03;5117953;27;45195;-79
2022/09/23 07:26:32;;;;;;;;;20.67;20.33;;;;;17.36;48.36;101197.09;5117370;27;45402;-75
2022/09/23 07:29:09;;;;;;;;;23.33;19.67;;;;;17.34;48.29;101197.28;5133975;27;46211;-75
2022/09/23 07:31:34;;;;;;;;;23.33;22.33;;;;;17.37;48.44;101201.47;5117432;27;45476;-79
2022/09/23 07:34:01;;;;;;;;;18.67;18.33;;;;;17.33;48.57;101181.31;5116416;27;46127;-78
2022/09/23 07:36:28;;;;;;;;;22.33;20.00;;;;;17.20;48.61;101168.47;5115600;27;45588;-79
2022/09/23 07:39:02;;;;;;;;;22.33;20.00;;;;;17.20;48.76;101176.53;5116939;27;48272;-77
2022/09/23 07:41:29;;;;;;;;;22.67;22.00;;;;;17.32;48.84;101220.81;5115956;27;45488;-80
2022/09/23 07:43:59;;;;;;;;;24.33;21.00;;;;;17.19;49.22;101204.41;5113029;27;45533;-78
2022/09/23 07:46:35;;;;;;;;;22.67;22.67;;;;;17.30;48.99;101216.63;5129100;27;45524;-79
2022/09/23 07:49:02;;;;;;;;;24.00;24.00;;;;;16.91;49.12;101141.44;5114433;27;45480;-83
2022/09/23 07:51:29;;;;;;;;;21.67;19.33;;;;;17.26;48.94;101204.56;5104389;27;46081;-78
2022/09/23 07:53:55;;;;;;;;;26.00;24.33;;;;;16.97;48.98;101151.47;5110516;27;45624;-77
2022/09/23 07:56:25;;;;;;;;;27.00;24.67;;;;;17.32;48.98;101215.44;5110912;27;45451;-78
2022/09/23 07:59:01;;;;;;;;;25.00;21.67;;;;;17.28;48.43;101189.09;5129873;27;49021;-78
2022/09/23 08:01:49;;;;;;;;;25.00;22.67;;;;;17.68;48.00;101222.16;5107015;27;45681;-77
2022/09/23 08:04:20;;;;;;;;;24.00;21.67;;;;;17.80;47.38;101216.16;5116114;27;45546;-76
2022/09/23 08:06:54;;;;;;;;;26.67;24.00;;;;;18.11;46.49;101210.69;5117155;27;46555;-82
2022/09/23 08:09:23;;;;;;;;;25.00;22.33;;;;;18.42;46.50;101229.44;5121239;27;46526;-75
2022/09/23 08:11:50;;;;;;;;;32.00;23.67;;;;;18.65;46.03;101240.16;5120034;27;45434;-73
2022/09/23 08:14:17;;;;;;;;;30.00;25.33;;;;;18.93;45.66;101237.66;5120125;27;45369;-75
2022/09/23 08:16:44;;;;;;;;;26.00;21.33;;;;;19.12;44.71;101231.69;5119800;27;45474;-77
2022/09/23 08:19:11;;;;;;;;;30.00;27.33;;;;;19.47;44.20;101239.97;5136525;27;47985;-77
2022/09/23 08:21:38;;;;;;;;;22.33;20.33;;;;;19.77;43.09;101221.84;5121015;27;46252;-77
2022/09/23 08:24:04;;;;;;;;;23.33;23.33;;;;;19.55;42.33;101167.06;5112704;27;45255;-74
2022/09/23 08:26:33;;;;;;;;;21.00;16.33;;;;;19.40;41.71;101125.81;5120136;27;45216;-74
2022/09/23 08:28:59;;;;;;;;;30.00;24.33;;;;;19.55;41.58;101155.44;5118997;27;45428;-76
2022/09/23 08:31:25;;;;;;;;;21.67;20.00;;;;;19.86;41.53;101220.72;5120417;27;46422;-76
2022/09/23 08:33:56;;;;;;;;;20.33;19.33;;;;;19.94;41.41;101246.72;5124604;27;45440;-76
2022/09/23 08:36:23;;;;;;;;;18.67;17.33;;;;;19.82;41.27;101213.19;5120895;27;45638;-79
2022/09/23 08:38:48;;;;;;;;;19.00;18.67;;;;;19.85;40.93;101205.56;5120366;27;47229;-78
2022/09/23 08:41:22;;;;;;;;;21.67;19.00;;;;;20.06;40.80;101239.78;5127082;27;45682;-77
2022/09/23 08:43:56;;;;;;;;;17.00;17.00;;;;;20.17;40.29;101227.63;5120776;27;45455;-71
2022/09/23 08:46:30;;;;;;;;;15.67;15.67;;;;;20.31;39.83;101232.94;5119737;27;45451;-67
2022/09/23 08:48:58;;;;;;;;;15.67;15.67;;;;;20.48;39.43;101225.41;5119047;27;46945;-68
2022/09/23 08:51:38;;;;;;;;;19.33;16.67;;;;;20.61;38.85;101220.06;5117881;27;45429;-68
2022/09/23 08:54:04;;;;;;;;;18.67;15.67;;;;;20.36;38.57;101168.38;5123793;27;45668;-67
2022/09/23 08:56:31;;;;;;;;;14.33;13.00;;;;;20.78;38.66;101238.69;5123040;27;45443;-66
2022/09/23 08:59:02;;;;;;;;;17.00;14.67;;;;;20.72;38.59;101223.28;5118276;27;46743;-67
2022/09/23 09:01:48;;;;;;;;;14.33;14.33;;;;;20.53;39.03;101211.31;5118996;27;45567;-67
2022/09/23 09:04:39;;;;;;;;;21.67;20.00;;;;;20.52;39.11;101213.16;5111224;27;45521;-68
2022/09/23 09:07:08;;;;;;;;;15.67;13.33;;;;;20.59;38.81;101230.25;5120148;27;45415;-68
2022/09/23 09:09:44;;;;;;;;;17.00;14.67;;;;;20.40;39.27;101221.97;5118524;27;46539;-67
2022/09/23 09:12:28;;;;;;;;;16.33;15.00;;;;;20.45;39.49;101230.38;5125922;27;45371;-69
2022/09/23 09:14:57;;;;;;;;;19.67;14.67;;;;;20.43;39.52;101222.47;5119400;27;45184;-69
2022/09/23 09:17:23;;;;;;;;;14.67;13.67;;;;;20.39;39.42;101223.00;5118093;27;45455;-69
2022/09/23 09:20:17;;;;;;;;;20.67;14.67;;;;;20.28;39.43;101214.44;5117433;27;48118;-68
2022/09/23 09:22:59;;;;;;;;;14.33;14.33;;;;;20.31;39.64;101219.44;5113971;27;45500;-67
2022/09/23 09:25:41;;;;;;;;;19.00;17.00;;;;;20.29;39.94;101221.50;5111581;27;45567;-67
2022/09/23 09:28:37;;;;;;;;;20.33;18.00;;;;;20.22;40.11;101223.31;5118629;27;45356;-67
2022/09/23 09:31:29;;;;;;;;;22.67;18.67;;;;;20.26;39.65;101219.19;5116749;27;46589;-66
2022/09/23 09:34:14;;;;;;;;;11.00;11.00;;;;;20.29;39.74;101209.88;5116762;27;45532;-74
2022/09/23 09:36:49;;;;;;;;;21.33;19.00;;;;;20.22;40.03;101206.25;5112813;27;45374;-68
2022/09/23 09:39:15;;;;;;;;;18.33;16.33;;;;;19.92;39.37;101141.66;5116854;27;45572;-68
2022/09/23 09:41:46;;;;;;;;;17.67;13.33;;;;;20.49;39.24;101212.75;5115282;27;46695;-66
2022/09/23 09:44:35;;;;;;;;;26.00;23.67;;;;;20.78;40.27;101211.66;5118310;27;45753;-67
2022/09/23 09:47:28;;;;;;;;;29.67;28.00;;;;;21.16;39.89;101204.78;5118532;27;45507;-69
2022/09/23 09:50:07;;;;;;;;;27.67;23.67;;;;;21.41;39.66;101206.97;5117176;27;45381;-68
2022/09/23 09:52:34;;;;;;;;;30.67;27.00;;;;;21.15;39.29;101131.97;5118951;27;45727;-67
2022/09/23 09:55:11;;;;;;;;;30.33;29.00;;;;;21.21;39.13;101136.56;5118142;27;45269;-68
2022/09/23 09:57:53;;;;;;;;;33.00;28.67;;;;;21.69;38.98;101204.97;5117357;27;45704;-66
2022/09/23 10:00:25;;;;;;;;;30.33;29.33;;;;;21.78;39.14;101211.81;5116862;27;45319;-67
2022/09/23 10:02:53;;;;;;;;;32.00;27.67;;;;;21.78;39.42;101209.13;5116840;27;46013;-67
2022/09/23 10:05:46;;;;;;;;;30.00;28.33;;;;;21.84;39.14;101210.19;5117072;27;45416;-68
2022/09/23 10:08:36;;;;;;;;;25.00;22.67;;;;;21.85;37.97;101198.31;5112993;27;46415;-67
2022/09/23 10:11:17;;;;;;;;;26.67;24.67;;;;;21.81;38.20;101180.81;5114543;27;45500;-68
2022/09/23 10:14:01;;;;;;;;;22.67;20.33;;;;;22.00;37.24;101201.63;5116199;27;45457;-72
2022/09/23 10:16:30;;;;;;;;;20.00;20.00;;;;;21.95;37.19;101171.66;5116332;27;45467;-66
2022/09/23 10:18:57;;;;;;;;;19.00;17.33;;;;;22.15;36.78;101193.34;5118128;27;45427;-67
2022/09/23 10:21:24;;;;;;;;;16.33;14.67;;;;;22.17;35.94;101192.09;5118404;27;45365;-67
2022/09/23 10:23:56;;;;;;;;;18.00;15.00;;;;;22.09;36.03;101181.47;5116436;27;46303;-68
2022/09/23 10:26:31;;;;;;;;;19.33;18.00;;;;;22.11;35.99;101182.09;5117854;27;45472;-67
2022/09/23 10:28:58;;;;;;;;;18.00;16.67;;;;;21.70;35.60;101105.66;5118458;27;45305;-67
2022/09/23 10:31:34;;;;;;;;;17.67;14.33;;;;;22.22;35.60;101182.50;5117028;27;45619;-67
2022/09/23 10:34:02;;;;;;;;;15.67;13.67;;;;;22.13;35.29;101179.19;5118235;27;46289;-68
2022/09/23 10:36:30;;;;;;;;;21.33;18.00;;;;;22.15;35.83;101186.06;5116592;27;46207;-67
2022/09/23 10:48:17;;;;;;;;;16.67;14.00;;;;;22.16;35.60;101176.06;5109151;27;45574;-72
2022/09/23 10:50:51;;;;;;;;;17.33;14.00;;;;;22.14;35.06;101184.38;5126217;27;45300;-67
2022/09/23 10:53:40;;;;;;;;;12.67;12.67;;;;;22.21;35.11;101170.00;5118074;27;45479;-70
2022/09/23 10:56:32;;;;;;;;;19.67;17.00;;;;;21.93;35.14;101103.34;5112319;27;46928;-67
2022/09/23 10:59:26;;;;;;;;;17.67;15.00;;;;;22.29;34.67;101164.38;5117693;27;45386;-66
2022/09/23 11:02:06;;;;;;;;;14.00;13.33;;;;;22.33;34.63;101169.16;5105861;27;45473;-67
2022/09/23 11:04:43;;;;;;;;;20.67;17.00;;;;;22.33;34.42;101155.63;5097390;27;45454;-67
2022/09/23 11:07:22;;;;;;;;;16.00;14.33;;;;;22.44;34.23;101160.41;5078858;27;46460;-67
2022/09/23 11:10:19;;;;;;;;;20.33;16.33;;;;;22.48;34.45;101149.13;5089251;27;45308;-68
2022/09/23 11:13:03;;;;;;;;;19.00;19.00;;;;;22.47;34.67;101151.00;5095544;27;45565;-67
2022/09/23 11:15:53;;;;;;;;;17.33;17.33;;;;;22.32;34.06;101153.94;5096112;27;45412;-67
2022/09/23 11:18:28;;;;;;;;;19.33;19.33;;;;;22.31;34.41;101157.72;5098484;27;46114;-67
2022/09/23 11:21:30;;;;;;;;;19.33;17.67;;;;;22.37;34.96;101146.00;5092628;27;45329;-67
2022/09/23 11:24:33;;;;;;;;;19.33;16.33;;;;;22.40;34.21;101145.59;5100709;27;45201;-66
2022/09/23 11:27:08;;;;;;;;;17.00;15.67;;;;;22.24;33.60;101132.53;5093374;27;45466;-68
2022/09/23 11:30:00;;;;;;;;;14.67;13.33;;;;;22.24;34.06;101131.69;5100488;27;45679;-68
2022/09/23 11:33:12;;;;;;;;;20.00;19.67;;;;;22.26;35.10;101118.75;5100295;27;45438;-68
2022/09/23 11:35:40;;;;;;;;;21.33;20.33;;;;;22.35;34.48;101134.56;5097818;27;45331;-67
2022/09/23 11:38:20;;;;;;;;;24.33;24.33;;;;;22.36;35.00;101129.97;5100599;27;45513;-67
2022/09/23 11:40:53;;;;;;;;;19.00;19.00;;;;;22.33;34.52;101133.13;5099816;27;45944;-66
2022/09/23 11:43:32;;;;;;;;;26.67;22.33;;;;;22.35;34.57;101136.44;5081619;27;45405;-68